sensor_id;sensor_type;location;lat;lon;timestamp;pressure;altitude;pressure_sealevel;temperature;humidity
59588;BME280;45412;54.472;18.464;2023-05-09T00:01:49;101122.54;;;4.86;69.08
59588;BME280;45412;54.472;18.464;2023-05-09T00:04:38;101127.58;;;4.88;69.07
59588;BME280;45412;54.472;18.464;2023-05-09T00:07:26;101128.10;;;4.93;68.84
59588;BME280;45412;54.472;18.464;2023-05-09T00:10:16;101129.81;;;5.08;68.12
59588;BME280;45412;54.472;18.464;2023-05-09T00:13:04;101128.95;;;5.18;67.51
59588;BME280;45412;54.472;18.464;2023-05-09T00:15:54;101125.02;;;5.24;67.07
59588;BME280;45412;54.472;18.464;2023-05-09T00:18:45;101126.88;;;5.34;66.40
59588;BME280;45412;54.472;18.464;2023-05-09T00:21:34;101121.89;;;5.45;65.39
59588;BME280;45412;54.472;18.464;2023-05-09T00:24:23;101119.91;;;5.55;64.58
59588;BME280;45412;54.472;18.464;2023-05-09T00:27:11;101119.77;;;5.63;63.77
59588;BME280;45412;54.472;18.464;2023-05-09T00:30:00;101121.10;;;5.70;62.95
59588;BME280;45412;54.472;18.464;2023-05-09T00:32:48;101118.08;;;5.74;62.60
59588;BME280;45412;54.472;18.464;2023-05-09T00:35:36;101116.27;;;5.80;62.26
59588;BME280;45412;54.472;18.464;2023-05-09T00:38:24;101115.84;;;5.86;61.64
59588;BME280;45412;54.472;18.464;2023-05-09T00:41:12;101115.77;;;5.92;61.24
59588;BME280;45412;54.472;18.464;2023-05-09T00:44:01;101117.17;;;5.97;60.80
59588;BME280;45412;54.472;18.464;2023-05-09T00:46:50;101113.90;;;6.04;60.36
59588;BME280;45412;54.472;18.464;2023-05-09T00:49:39;101117.09;;;6.08;60.35
59588;BME280;45412;54.472;18.464;2023-05-09T00:52:27;101120.10;;;6.12;59.85
59588;BME280;45412;54.472;18.464;2023-05-09T00:55:16;101117.08;;;6.16;59.85
59588;BME280;45412;54.472;18.464;2023-05-09T00:58:04;101116.40;;;6.20;59.41
59588;BME280;45412;54.472;18.464;2023-05-09T01:00:53;101115.48;;;6.21;59.50
59588;BME280;45412;54.472;18.464;2023-05-09T01:03:41;101112.46;;;6.22;59.22
59588;BME280;45412;54.472;18.464;2023-05-09T01:10:10;101108.98;;;6.29;59.18
59588;BME280;45412;54.472;18.464;2023-05-09T01:16:17;101106.17;;;6.33;58.89
59588;BME280;45412;54.472;18.464;2023-05-09T01:22:36;101102.69;;;6.43;57.97
59588;BME280;45412;54.472;18.464;2023-05-09T01:32:22;101106.37;;;6.53;57.66
59588;BME280;45412;54.472;18.464;2023-05-09T01:35:14;101103.60;;;6.55;57.63
59588;BME280;45412;54.472;18.464;2023-05-09T01:38:11;101099.88;;;6.56;57.75
59588;BME280;45412;54.472;18.464;2023-05-09T01:41:01;101099.77;;;6.58;57.66
59588;BME280;45412;54.472;18.464;2023-05-09T01:43:53;101099.06;;;6.58;58.13
59588;BME280;45412;54.472;18.464;2023-05-09T01:46:43;101100.44;;;6.59;57.74
59588;BME280;45412;54.472;18.464;2023-05-09T01:49:36;101099.62;;;6.58;58.15
59588;BME280;45412;54.472;18.464;2023-05-09T01:52:26;101103.55;;;6.60;57.93
59588;BME280;45412;54.472;18.464;2023-05-09T01:55:15;101105.81;;;6.65;57.99
59588;BME280;45412;54.472;18.464;2023-05-09T01:58:05;101099.66;;;6.72;57.56
59588;BME280;45412;54.472;18.464;2023-05-09T02:00:53;101097.29;;;6.78;57.40
59588;BME280;45412;54.472;18.464;2023-05-09T02:03:44;101094.88;;;6.80;57.19
59588;BME280;45412;54.472;18.464;2023-05-09T02:06:35;101094.90;;;6.85;57.40
59588;BME280;45412;54.472;18.464;2023-05-09T02:09:23;101093.77;;;6.85;57.19
59588;BME280;45412;54.472;18.464;2023-05-09T02:12:12;101094.52;;;6.85;57.18
59588;BME280;45412;54.472;18.464;2023-05-09T02:15:00;101093.70;;;6.83;57.32
59588;BME280;45412;54.472;18.464;2023-05-09T02:17:50;101094.77;;;6.79;57.42
59588;BME280;45412;54.472;18.464;2023-05-09T02:20:39;101094.73;;;6.76;57.50
59588;BME280;45412;54.472;18.464;2023-05-09T02:23:27;101098.73;;;6.70;57.64
59588;BME280;45412;54.472;18.464;2023-05-09T02:26:15;101102.03;;;6.62;57.77
59588;BME280;45412;54.472;18.464;2023-05-09T02:29:05;101098.85;;;6.55;58.29
59588;BME280;45412;54.472;18.464;2023-05-09T02:31:56;101105.92;;;6.46;58.68
59588;BME280;45412;54.472;18.464;2023-05-09T02:34:47;101105.10;;;6.41;59.29
59588;BME280;45412;54.472;18.464;2023-05-09T02:37:36;101103.61;;;6.39;59.66
59588;BME280;45412;54.472;18.464;2023-05-09T02:40:25;101104.12;;;6.36;59.65
59588;BME280;45412;54.472;18.464;2023-05-09T02:43:17;101106.47;;;6.34;59.57
59588;BME280;45412;54.472;18.464;2023-05-09T02:46:08;101103.71;;;6.33;59.72
59588;BME280;45412;54.472;18.464;2023-05-09T02:49:01;101105.75;;;6.30;59.69
59588;BME280;45412;54.472;18.464;2023-05-09T02:51:50;101105.13;;;6.28;59.82
59588;BME280;45412;54.472;18.464;2023-05-09T02:54:40;101104.34;;;6.26;60.15
59588;BME280;45412;54.472;18.464;2023-05-09T02:57:33;101104.50;;;6.26;60.07
59588;BME280;45412;54.472;18.464;2023-05-09T03:00:23;101106.63;;;6.26;60.13
59588;BME280;45412;54.472;18.464;2023-05-09T03:03:15;101103.26;;;6.27;60.50
59588;BME280;45412;54.472;18.464;2023-05-09T03:06:07;101107.98;;;6.27;60.46
59588;BME280;45412;54.472;18.464;2023-05-09T03:09:00;101108.25;;;6.29;60.24
59588;BME280;45412;54.472;18.464;2023-05-09T03:11:53;101109.61;;;6.30;60.48
59588;BME280;45412;54.472;18.464;2023-05-09T03:14:42;101112.18;;;6.32;60.52
59588;BME280;45412;54.472;18.464;2023-05-09T03:17:31;101106.45;;;6.34;60.46
59588;BME280;45412;54.472;18.464;2023-05-09T03:20:22;101107.73;;;6.37;60.60
59588;BME280;45412;54.472;18.464;2023-05-09T03:23:10;101110.30;;;6.39;60.49
59588;BME280;45412;54.472;18.464;2023-05-09T03:25:59;101107.90;;;6.41;60.73
59588;BME280;45412;54.472;18.464;2023-05-09T03:28:47;101111.33;;;6.44;60.85
59588;BME280;45412;54.472;18.464;2023-05-09T03:31:36;101112.33;;;6.49;60.53
59588;BME280;45412;54.472;18.464;2023-05-09T03:34:25;101111.80;;;6.57;60.35
59588;BME280;45412;54.472;18.464;2023-05-09T03:37:14;101110.92;;;6.65;60.44
59588;BME280;45412;54.472;18.464;2023-05-09T03:40:04;101111.44;;;6.73;60.10
59588;BME280;45412;54.472;18.464;2023-05-09T03:42:58;101112.21;;;6.83;59.90
59588;BME280;45412;54.472;18.464;2023-05-09T03:45:46;101111.36;;;6.91;59.75
59588;BME280;45412;54.472;18.464;2023-05-09T03:48:34;101110.29;;;6.99;59.37
59588;BME280;45412;54.472;18.464;2023-05-09T03:51:22;101112.67;;;7.08;59.18
59588;BME280;45412;54.472;18.464;2023-05-09T03:54:10;101109.39;;;7.18;58.98
59588;BME280;45412;54.472;18.464;2023-05-09T03:56:59;101112.00;;;7.26;58.77
59588;BME280;45412;54.472;18.464;2023-05-09T03:59:49;101112.19;;;7.37;58.28
59588;BME280;45412;54.472;18.464;2023-05-09T04:02:41;101111.91;;;7.47;57.86
59588;BME280;45412;54.472;18.464;2023-05-09T04:05:35;101116.38;;;7.57;57.49
59588;BME280;45412;54.472;18.464;2023-05-09T04:08:23;101119.09;;;7.67;57.08
59588;BME280;45412;54.472;18.464;2023-05-09T04:11:12;101119.63;;;7.77;56.86
59588;BME280;45412;54.472;18.464;2023-05-09T04:14:02;101123.79;;;7.87;56.75
59588;BME280;45412;54.472;18.464;2023-05-09T04:16:55;101125.45;;;7.96;56.48
59588;BME280;45412;54.472;18.464;2023-05-09T04:19:43;101125.69;;;8.05;56.06
59588;BME280;45412;54.472;18.464;2023-05-09T04:22:32;101125.21;;;8.14;55.79
59588;BME280;45412;54.472;18.464;2023-05-09T04:25:21;101125.63;;;8.24;55.42
59588;BME280;45412;54.472;18.464;2023-05-09T04:28:13;101124.61;;;8.33;55.21
59588;BME280;45412;54.472;18.464;2023-05-09T04:31:10;101128.30;;;8.44;54.89
59588;BME280;45412;54.472;18.464;2023-05-09T04:34:03;101127.86;;;8.57;54.54
59588;BME280;45412;54.472;18.464;2023-05-09T04:36:53;101128.70;;;8.67;54.16
59588;BME280;45412;54.472;18.464;2023-05-09T04:39:42;101132.02;;;8.79;53.81
59588;BME280;45412;54.472;18.464;2023-05-09T04:42:38;101126.51;;;8.89;53.38
59588;BME280;45412;54.472;18.464;2023-05-09T04:45:27;101129.32;;;9.00;53.40
59588;BME280;45412;54.472;18.464;2023-05-09T04:48:16;101126.66;;;9.10;53.10
59588;BME280;45412;54.472;18.464;2023-05-09T04:51:05;101127.17;;;9.19;52.61
59588;BME280;45412;54.472;18.464;2023-05-09T04:53:54;101123.89;;;9.31;52.95
59588;BME280;45412;54.472;18.464;2023-05-09T04:56:45;101128.71;;;9.43;52.20
59588;BME280;45412;54.472;18.464;2023-05-09T04:59:37;101126.45;;;9.55;52.35
59588;BME280;45412;54.472;18.464;2023-05-09T05:02:26;101131.30;;;9.70;52.13
59588;BME280;45412;54.472;18.464;2023-05-09T05:05:15;101134.15;;;9.91;51.13
59588;BME280;45412;54.472;18.464;2023-05-09T05:08:04;101130.88;;;10.26;51.17
59588;BME280;45412;54.472;18.464;2023-05-09T05:10:54;101127.13;;;11.30;49.30
59588;BME280;45412;54.472;18.464;2023-05-09T05:13:43;101124.80;;;12.83;46.56
59588;BME280;45412;54.472;18.464;2023-05-09T05:16:32;101125.49;;;14.42;42.75
59588;BME280;45412;54.472;18.464;2023-05-09T05:19:22;101115.17;;;15.96;39.43
59588;BME280;45412;54.472;18.464;2023-05-09T05:22:11;101110.98;;;17.39;36.12
59588;BME280;45412;54.472;18.464;2023-05-09T05:25:01;101111.09;;;18.49;33.86
59588;BME280;45412;54.472;18.464;2023-05-09T05:27:51;101101.96;;;19.52;31.89
59588;BME280;45412;54.472;18.464;2023-05-09T05:30:42;101100.44;;;20.53;30.97
59588;BME280;45412;54.472;18.464;2023-05-09T05:33:30;101094.48;;;21.47;28.24
59588;BME280;45412;54.472;18.464;2023-05-09T05:36:19;101092.83;;;22.26;27.27
59588;BME280;45412;54.472;18.464;2023-05-09T05:39:07;101085.86;;;22.85;26.06
59588;BME280;45412;54.472;18.464;2023-05-09T05:41:56;101091.86;;;23.62;25.41
59588;BME280;45412;54.472;18.464;2023-05-09T05:44:44;101075.95;;;24.10;24.52
59588;BME280;45412;54.472;18.464;2023-05-09T05:47:35;101083.63;;;24.59;23.39
59588;BME280;45412;54.472;18.464;2023-05-09T05:50:24;101087.98;;;24.88;22.92
59588;BME280;45412;54.472;18.464;2023-05-09T05:53:13;101086.20;;;24.69;22.23
59588;BME280;45412;54.472;18.464;2023-05-09T05:56:01;101085.20;;;24.69;22.93
59588;BME280;45412;54.472;18.464;2023-05-09T05:58:50;101086.45;;;24.99;22.42
59588;BME280;45412;54.472;18.464;2023-05-09T06:01:39;101083.72;;;25.36;22.27
59588;BME280;45412;54.472;18.464;2023-05-09T06:04:28;101085.38;;;25.91;21.85
59588;BME280;45412;54.472;18.464;2023-05-09T06:07:16;101086.06;;;26.49;20.96
59588;BME280;45412;54.472;18.464;2023-05-09T06:10:07;101083.28;;;27.04;20.63
59588;BME280;45412;54.472;18.464;2023-05-09T06:12:55;101083.35;;;27.43;19.65
59588;BME280;45412;54.472;18.464;2023-05-09T06:15:44;101081.80;;;27.39;19.78
59588;BME280;45412;54.472;18.464;2023-05-09T06:18:34;101079.86;;;27.45;19.33
59588;BME280;45412;54.472;18.464;2023-05-09T06:21:25;101082.92;;;26.93;19.25
59588;BME280;45412;54.472;18.464;2023-05-09T06:24:15;101076.85;;;26.71;19.90
59588;BME280;45412;54.472;18.464;2023-05-09T06:27:21;101077.04;;;26.99;19.87
59588;BME280;45412;54.472;18.464;2023-05-09T06:30:11;101077.58;;;27.31;19.24
59588;BME280;45412;54.472;18.464;2023-05-09T06:33:13;101070.36;;;27.35;19.00
59588;BME280;45412;54.472;18.464;2023-05-09T06:36:01;101068.77;;;27.51;18.90
59588;BME280;45412;54.472;18.464;2023-05-09T06:38:50;101069.10;;;28.10;18.79
59588;BME280;45412;54.472;18.464;2023-05-09T06:41:39;101069.32;;;28.41;18.24
59588;BME280;45412;54.472;18.464;2023-05-09T06:44:28;101071.09;;;28.70;17.56
59588;BME280;45412;54.472;18.464;2023-05-09T06:47:19;101066.30;;;28.73;17.09
59588;BME280;45412;54.472;18.464;2023-05-09T06:50:08;101064.53;;;28.91;16.82
59588;BME280;45412;54.472;18.464;2023-05-09T06:52:57;101063.33;;;28.67;16.92
59588;BME280;45412;54.472;18.464;2023-05-09T06:55:45;101060.86;;;28.36;17.18
59588;BME280;45412;54.472;18.464;2023-05-09T06:58:34;101061.63;;;28.36;17.64
59588;BME280;45412;54.472;18.464;2023-05-09T07:01:23;101062.91;;;28.70;17.44
59588;BME280;45412;54.472;18.464;2023-05-09T07:04:14;101063.48;;;28.88;16.94
59588;BME280;45412;54.472;18.464;2023-05-09T07:07:02;101055.49;;;28.66;16.89
59588;BME280;45412;54.472;18.464;2023-05-09T07:09:51;101048.98;;;28.64;17.12
59588;BME280;45412;54.472;18.464;2023-05-09T07:12:51;101045.96;;;28.51;17.35
59588;BME280;45412;54.472;18.464;2023-05-09T07:15:43;101040.98;;;28.66;17.18
59588;BME280;45412;54.472;18.464;2023-05-09T07:18:32;101039.10;;;28.82;17.01
59588;BME280;45412;54.472;18.464;2023-05-09T07:21:21;101035.40;;;28.93;16.75
59588;BME280;45412;54.472;18.464;2023-05-09T07:24:10;101025.98;;;29.12;16.11
59588;BME280;45412;54.472;18.464;2023-05-09T07:27:03;101034.41;;;29.23;15.87
59588;BME280;45412;54.472;18.464;2023-05-09T07:29:51;101026.05;;;29.18;15.58
59588;BME280;45412;54.472;18.464;2023-05-09T07:32:39;101028.02;;;29.25;14.87
59588;BME280;45412;54.472;18.464;2023-05-09T07:35:28;101030.39;;;28.45;15.01
59588;BME280;45412;54.472;18.464;2023-05-09T07:38:43;101023.39;;;28.52;15.15
59588;BME280;45412;54.472;18.464;2023-05-09T07:41:35;101019.99;;;28.48;14.57
59588;BME280;45412;54.472;18.464;2023-05-09T07:44:41;101011.42;;;28.37;15.00
59588;BME280;45412;54.472;18.464;2023-05-09T07:47:30;101021.52;;;28.59;14.84
59588;BME280;45412;54.472;18.464;2023-05-09T07:50:27;101014.55;;;28.66;14.92
59588;BME280;45412;54.472;18.464;2023-05-09T07:53:15;101011.05;;;28.98;14.75
59588;BME280;45412;54.472;18.464;2023-05-09T07:56:04;101014.06;;;29.12;14.68
59588;BME280;45412;54.472;18.464;2023-05-09T07:58:54;101011.27;;;29.01;15.28
59588;BME280;45412;54.472;18.464;2023-05-09T08:01:43;101014.95;;;28.63;15.00
59588;BME280;45412;54.472;18.464;2023-05-09T08:04:33;101001.88;;;28.52;15.29
59588;BME280;45412;54.472;18.464;2023-05-09T08:07:25;101003.80;;;28.42;15.11
59588;BME280;45412;54.472;18.464;2023-05-09T08:10:16;100998.89;;;28.30;15.34
59588;BME280;45412;54.472;18.464;2023-05-09T08:13:08;100994.89;;;28.31;15.10
59588;BME280;45412;54.472;18.464;2023-05-09T08:15:56;100999.23;;;28.00;15.65
59588;BME280;45412;54.472;18.464;2023-05-09T08:18:45;100991.78;;;28.13;16.09
59588;BME280;45412;54.472;18.464;2023-05-09T08:21:33;100984.95;;;28.63;15.68
59588;BME280;45412;54.472;18.464;2023-05-09T08:24:21;100978.74;;;27.86;15.50
59588;BME280;45412;54.472;18.464;2023-05-09T08:27:11;100985.73;;;27.27;15.82
59588;BME280;45412;54.472;18.464;2023-05-09T08:30:00;100973.77;;;27.44;15.63
59588;BME280;45412;54.472;18.464;2023-05-09T08:32:50;100979.70;;;27.29;15.72
59588;BME280;45412;54.472;18.464;2023-05-09T08:35:43;100971.35;;;27.10;15.87
59588;BME280;45412;54.472;18.464;2023-05-09T08:38:42;100971.73;;;27.28;15.73
59588;BME280;45412;54.472;18.464;2023-05-09T08:41:32;100962.64;;;27.42;15.57
59588;BME280;45412;54.472;18.464;2023-05-09T08:44:22;100960.12;;;27.54;15.70
59588;BME280;45412;54.472;18.464;2023-05-09T08:47:12;100956.45;;;27.79;15.48
59588;BME280;45412;54.472;18.464;2023-05-09T08:50:03;100952.44;;;28.20;15.69
59588;BME280;45412;54.472;18.464;2023-05-09T08:52:52;100954.98;;;28.56;14.86
59588;BME280;45412;54.472;18.464;2023-05-09T08:55:40;100954.52;;;28.20;14.73
59588;BME280;45412;54.472;18.464;2023-05-09T08:58:30;100957.29;;;28.04;15.09
59588;BME280;45412;54.472;18.464;2023-05-09T09:01:19;100959.24;;;28.08;15.01
59588;BME280;45412;54.472;18.464;2023-05-09T09:04:08;100954.18;;;27.89;14.98
59588;BME280;45412;54.472;18.464;2023-05-09T09:06:58;100955.61;;;27.43;15.45
59588;BME280;45412;54.472;18.464;2023-05-09T09:09:49;100949.39;;;27.24;16.07
59588;BME280;45412;54.472;18.464;2023-05-09T09:12:40;100946.95;;;27.16;15.45
59588;BME280;45412;54.472;18.464;2023-05-09T09:15:36;100932.83;;;27.16;15.55
59588;BME280;45412;54.472;18.464;2023-05-09T09:18:29;100956.52;;;26.34;16.12
59588;BME280;45412;54.472;18.464;2023-05-09T09:21:22;100944.86;;;26.15;16.56
59588;BME280;45412;54.472;18.464;2023-05-09T09:24:19;100945.56;;;26.33;16.67
59588;BME280;45412;54.472;18.464;2023-05-09T09:27:10;100948.95;;;26.03;16.58
59588;BME280;45412;54.472;18.464;2023-05-09T09:30:11;100936.90;;;26.14;16.21
59588;BME280;45412;54.472;18.464;2023-05-09T09:33:05;100937.80;;;26.23;15.82
59588;BME280;45412;54.472;18.464;2023-05-09T09:35:55;100941.48;;;25.80;16.56
59588;BME280;45412;54.472;18.464;2023-05-09T09:38:45;100939.48;;;25.72;17.18
59588;BME280;45412;54.472;18.464;2023-05-09T09:41:37;100936.41;;;25.80;17.11
59588;BME280;45412;54.472;18.464;2023-05-09T09:44:25;100926.44;;;25.97;16.98
59588;BME280;45412;54.472;18.464;2023-05-09T09:47:14;100921.88;;;26.35;17.08
59588;BME280;45412;54.472;18.464;2023-05-09T09:50:16;100925.79;;;27.02;16.33
59588;BME280;45412;54.472;18.464;2023-05-09T09:53:06;100919.23;;;27.74;15.92
59588;BME280;45412;54.472;18.464;2023-05-09T09:55:55;100924.84;;;27.55;15.15
59588;BME280;45412;54.472;18.464;2023-05-09T09:58:43;100919.63;;;26.81;15.22
59588;BME280;45412;54.472;18.464;2023-05-09T10:01:33;100926.14;;;26.63;15.47
59588;BME280;45412;54.472;18.464;2023-05-09T10:04:22;100924.72;;;26.35;16.38
59588;BME280;45412;54.472;18.464;2023-05-09T10:07:11;100915.11;;;26.20;16.46
59588;BME280;45412;54.472;18.464;2023-05-09T10:10:02;100909.28;;;25.89;16.78
59588;BME280;45412;54.472;18.464;2023-05-09T10:13:03;100907.58;;;25.96;16.95
59588;BME280;45412;54.472;18.464;2023-05-09T10:15:51;100905.65;;;25.93;16.62
59588;BME280;45412;54.472;18.464;2023-05-09T10:18:41;100907.27;;;25.82;16.69
59588;BME280;45412;54.472;18.464;2023-05-09T10:21:30;100899.41;;;26.22;16.63
59588;BME280;45412;54.472;18.464;2023-05-09T10:24:28;100891.49;;;26.45;16.73
59588;BME280;45412;54.472;18.464;2023-05-09T10:27:26;100884.39;;;26.65;16.50
59588;BME280;45412;54.472;18.464;2023-05-09T10:30:18;100874.84;;;26.85;16.62
59588;BME280;45412;54.472;18.464;2023-05-09T10:33:09;100865.63;;;26.68;16.62
59588;BME280;45412;54.472;18.464;2023-05-09T10:35:59;100869.00;;;26.58;16.80
59588;BME280;45412;54.472;18.464;2023-05-09T10:38:54;100873.27;;;26.50;17.13
59588;BME280;45412;54.472;18.464;2023-05-09T10:41:43;100868.23;;;26.83;17.12
59588;BME280;45412;54.472;18.464;2023-05-09T10:44:32;100857.70;;;27.52;16.90
59588;BME280;45412;54.472;18.464;2023-05-09T10:47:20;100858.73;;;27.55;16.47
59588;BME280;45412;54.472;18.464;2023-05-09T10:50:11;100851.96;;;26.63;18.22
59588;BME280;45412;54.472;18.464;2023-05-09T10:53:08;100840.69;;;26.86;19.15
59588;BME280;45412;54.472;18.464;2023-05-09T10:56:04;100839.70;;;27.39;19.04
59588;BME280;45412;54.472;18.464;2023-05-09T10:58:52;100835.23;;;27.42;19.26
59588;BME280;45412;54.472;18.464;2023-05-09T11:01:41;100831.50;;;28.02;18.80
59588;BME280;45412;54.472;18.464;2023-05-09T11:04:31;100836.20;;;27.54;18.85
59588;BME280;45412;54.472;18.464;2023-05-09T11:07:24;100820.61;;;27.33;19.46
59588;BME280;45412;54.472;18.464;2023-05-09T11:10:19;100816.54;;;27.80;18.56
59588;BME280;45412;54.472;18.464;2023-05-09T11:13:08;100818.30;;;27.97;18.38
59588;BME280;45412;54.472;18.464;2023-05-09T11:18:51;100816.17;;;27.55;19.29
59588;BME280;45412;54.472;18.464;2023-05-09T11:22:00;100814.05;;;27.28;20.15
59588;BME280;45412;54.472;18.464;2023-05-09T11:25:02;100804.02;;;26.95;20.07
59588;BME280;45412;54.472;18.464;2023-05-09T11:28:02;100794.15;;;26.65;20.34
59588;BME280;45412;54.472;18.464;2023-05-09T11:30:50;100799.42;;;26.57;19.80
59588;BME280;45412;54.472;18.464;2023-05-09T11:33:44;100796.59;;;26.25;20.00
59588;BME280;45412;54.472;18.464;2023-05-09T11:36:35;100800.23;;;25.67;20.97
59588;BME280;45412;54.472;18.464;2023-05-09T11:39:24;100801.34;;;25.20;21.69
59588;BME280;45412;54.472;18.464;2023-05-09T11:42:12;100799.08;;;24.76;21.79
59588;BME280;45412;54.472;18.464;2023-05-09T11:45:00;100786.70;;;24.30;22.30
59588;BME280;45412;54.472;18.464;2023-05-09T11:47:49;100780.91;;;23.82;22.41
59588;BME280;45412;54.472;18.464;2023-05-09T11:50:38;100776.98;;;23.10;23.18
59588;BME280;45412;54.472;18.464;2023-05-09T11:53:28;100777.21;;;22.47;23.83
59588;BME280;45412;54.472;18.464;2023-05-09T11:56:16;100771.95;;;21.87;24.51
59588;BME280;45412;54.472;18.464;2023-05-09T11:59:10;100764.45;;;21.35;25.30
59588;BME280;45412;54.472;18.464;2023-05-09T12:02:05;100764.85;;;20.91;26.30
59588;BME280;45412;54.472;18.464;2023-05-09T12:04:54;100765.47;;;20.60;26.46
59588;BME280;45412;54.472;18.464;2023-05-09T12:07:42;100762.84;;;20.35;26.94
59588;BME280;45412;54.472;18.464;2023-05-09T12:10:36;100762.52;;;20.11;27.56
59588;BME280;45412;54.472;18.464;2023-05-09T12:13:24;100757.54;;;19.93;27.68
59588;BME280;45412;54.472;18.464;2023-05-09T12:16:18;100753.98;;;19.51;27.77
59588;BME280;45412;54.472;18.464;2023-05-09T12:19:08;100743.11;;;19.19;28.17
59588;BME280;45412;54.472;18.464;2023-05-09T12:22:02;100737.34;;;19.07;28.59
59588;BME280;45412;54.472;18.464;2023-05-09T12:24:50;100739.19;;;19.12;28.79
59588;BME280;45412;54.472;18.464;2023-05-09T12:27:40;100725.48;;;19.14;28.78
59588;BME280;45412;54.472;18.464;2023-05-09T12:30:30;100730.45;;;18.95;28.20
59588;BME280;45412;54.472;18.464;2023-05-09T12:33:19;100738.30;;;18.90;29.09
59588;BME280;45412;54.472;18.464;2023-05-09T12:36:12;100743.27;;;18.88;29.08
59588;BME280;45412;54.472;18.464;2023-05-09T12:39:00;100729.85;;;18.62;29.11
59588;BME280;45412;54.472;18.464;2023-05-09T12:41:50;100725.51;;;18.57;29.50
59588;BME280;45412;54.472;18.464;2023-05-09T12:44:49;100719.13;;;18.61;29.36
59588;BME280;45412;54.472;18.464;2023-05-09T12:47:39;100716.12;;;18.57;29.72
59588;BME280;45412;54.472;18.464;2023-05-09T12:50:32;100712.77;;;18.53;30.25
59588;BME280;45412;54.472;18.464;2023-05-09T12:53:27;100707.45;;;18.54;30.34
59588;BME280;45412;54.472;18.464;2023-05-09T12:56:20;100699.88;;;18.54;29.74
59588;BME280;45412;54.472;18.464;2023-05-09T12:59:10;100694.69;;;18.50;29.33
59588;BME280;45412;54.472;18.464;2023-05-09T13:02:01;100694.88;;;18.49;30.04
59588;BME280;45412;54.472;18.464;2023-05-09T13:05:13;100689.18;;;18.51;29.99
59588;BME280;45412;54.472;18.464;2023-05-09T13:08:03;100689.77;;;18.49;29.83
59588;BME280;45412;54.472;18.464;2023-05-09T13:10:52;100690.55;;;18.47;30.39
59588;BME280;45412;54.472;18.464;2023-05-09T13:13:51;100684.20;;;18.51;30.81
59588;BME280;45412;54.472;18.464;2023-05-09T13:16:40;100686.04;;;18.56;30.72
59588;BME280;45412;54.472;18.464;2023-05-09T13:19:30;100681.09;;;18.50;30.61
59588;BME280;45412;54.472;18.464;2023-05-09T13:22:18;100677.87;;;18.41;30.54
59588;BME280;45412;54.472;18.464;2023-05-09T13:25:07;100668.56;;;18.39;30.68
59588;BME280;45412;54.472;18.464;2023-05-09T13:27:55;100663.23;;;18.34;30.66
59588;BME280;45412;54.472;18.464;2023-05-09T13:30:43;100661.02;;;18.15;28.09
59588;BME280;45412;54.472;18.464;2023-05-09T13:33:32;100648.89;;;18.15;28.29
59588;BME280;45412;54.472;18.464;2023-05-09T13:36:21;100646.80;;;18.18;30.67
59588;BME280;45412;54.472;18.464;2023-05-09T13:39:08;100651.33;;;18.10;30.88
59588;BME280;45412;54.472;18.464;2023-05-09T13:41:57;100651.75;;;18.08;30.98
59588;BME280;45412;54.472;18.464;2023-05-09T13:44:46;100648.52;;;18.06;31.00
59588;BME280;45412;54.472;18.464;2023-05-09T13:47:34;100646.79;;;18.05;30.84
59588;BME280;45412;54.472;18.464;2023-05-09T13:50:25;100644.63;;;18.02;30.39
59588;BME280;45412;54.472;18.464;2023-05-09T13:53:13;100643.95;;;18.01;30.64
59588;BME280;45412;54.472;18.464;2023-05-09T13:56:02;100634.85;;;18.04;30.87
59588;BME280;45412;54.472;18.464;2023-05-09T13:58:51;100627.62;;;18.09;30.84
59588;BME280;45412;54.472;18.464;2023-05-09T14:01:39;100609.41;;;18.03;31.00
59588;BME280;45412;54.472;18.464;2023-05-09T14:04:29;100613.27;;;18.07;31.15
59588;BME280;45412;54.472;18.464;2023-05-09T14:07:21;100612.64;;;18.11;30.99
59588;BME280;45412;54.472;18.464;2023-05-09T14:10:11;100613.50;;;18.11;30.80
59588;BME280;45412;54.472;18.464;2023-05-09T14:12:59;100607.10;;;17.98;31.20
59588;BME280;45412;54.472;18.464;2023-05-09T14:15:47;100604.62;;;17.92;31.35
59588;BME280;45412;54.472;18.464;2023-05-09T14:18:38;100608.98;;;17.81;31.35
59588;BME280;45412;54.472;18.464;2023-05-09T14:21:26;100607.73;;;17.68;31.68
59588;BME280;45412;54.472;18.464;2023-05-09T14:24:14;100599.55;;;17.71;31.79
59588;BME280;45412;54.472;18.464;2023-05-09T14:27:03;100589.83;;;17.78;31.55
59588;BME280;45412;54.472;18.464;2023-05-09T14:29:51;100593.58;;;17.80;31.16
59588;BME280;45412;54.472;18.464;2023-05-09T14:32:39;100603.09;;;17.79;30.91
59588;BME280;45412;54.472;18.464;2023-05-09T14:35:27;100598.05;;;17.75;31.00
59588;BME280;45412;54.472;18.464;2023-05-09T14:38:19;100597.23;;;17.63;30.75
59588;BME280;45412;54.472;18.464;2023-05-09T14:41:08;100597.34;;;17.53;31.44
59588;BME280;45412;54.472;18.464;2023-05-09T14:43:56;100595.04;;;17.58;31.36
59588;BME280;45412;54.472;18.464;2023-05-09T14:46:44;100586.29;;;17.62;31.41
59588;BME280;45412;54.472;18.464;2023-05-09T14:49:40;100593.44;;;17.57;31.22
59588;BME280;45412;54.472;18.464;2023-05-09T14:52:28;100591.11;;;17.47;31.33
59588;BME280;45412;54.472;18.464;2023-05-09T14:55:17;100581.98;;;17.36;31.27
59588;BME280;45412;54.472;18.464;2023-05-09T14:58:06;100576.66;;;17.35;30.89
59588;BME280;45412;54.472;18.464;2023-05-09T15:00:54;100573.54;;;17.36;31.19
59588;BME280;45412;54.472;18.464;2023-05-09T15:03:43;100562.70;;;17.31;31.25